sensor_id;sensor_type;location;lat;lon;timestamp;temperature;humidity
23597;DHT22;40226;50.874;4.394;2022-07-23T00:00:52;18.40;99.90
23597;DHT22;40226;50.874;4.394;2022-07-23T00:03:17;18.50;99.90
23597;DHT22;40226;50.874;4.394;2022-07-23T00:05:43;18.40;99.90
23597;DHT22;40226;50.874;4.394;2022-07-23T00:08:08;18.20;99.90
23597;DHT22;40226;50.874;4.394;2022-07-23T00:10:34;18.10;99.90
23597;DHT22;40226;50.874;4.394;2022-07-23T00:13:00;17.90;99.90
23597;DHT22;40226;50.874;4.394;2022-07-23T00:15:26;17.70;99.90
23597;DHT22;40226;50.874;4.394;2022-07-23T00:17:52;17.80;99.90
23597;DHT22;40226;50.874;4.394;2022-07-23T00:20:17;18.10;99.90
23597;DHT22;40226;50.874;4.394;2022-07-23T00:22:50;18.30;99.90
23597;DHT22;40226;50.874;4.394;2022-07-23T00:25:16;18.40;99.90
23597;DHT22;40226;50.874;4.394;2022-07-23T00:27:42;18.30;99.90
23597;DHT22;40226;50.874;4.394;2022-07-23T00:30:08;18.30;99.90
23597;DHT22;40226;50.874;4.394;2022-07-23T00:32:51;18.10;99.90
23597;DHT22;40226;50.874;4.394;2022-07-23T00:35:20;18.20;99.90
23597;DHT22;40226;50.874;4.394;2022-07-23T00:37:46;18.10;99.90
23597;DHT22;40226;50.874;4.394;2022-07-23T00:40:12;18.10;99.90
23597;DHT22;40226;50.874;4.394;2022-07-23T00:42:39;17.90;99.90
23597;DHT22;40226;50.874;4.394;2022-07-23T00:45:04;17.90;99.90
23597;DHT22;40226;50.874;4.394;2022-07-23T00:47:30;17.80;99.90
23597;DHT22;40226;50.874;4.394;2022-07-23T00:49:56;17.80;99.90
23597;DHT22;40226;50.874;4.394;2022-07-23T00:52:22;17.70;99.90
23597;DHT22;40226;50.874;4.394;2022-07-23T00:54:48;17.70;99.90
23597;DHT22;40226;50.874;4.394;2022-07-23T00:57:14;17.60;99.90
23597;DHT22;40226;50.874;4.394;2022-07-23T00:59:40;17.60;99.90
23597;DHT22;40226;50.874;4.394;2022-07-23T01:02:06;17.50;99.90
23597;DHT22;40226;50.874;4.394;2022-07-23T01:04:32;17.40;99.90
23597;DHT22;40226;50.874;4.394;2022-07-23T01:06:58;17.40;99.90
23597;DHT22;40226;50.874;4.394;2022-07-23T01:09:23;17.50;99.90
23597;DHT22;40226;50.874;4.394;2022-07-23T01:11:50;17.60;99.90
23597;DHT22;40226;50.874;4.394;2022-07-23T01:14:18;17.60;99.90
23597;DHT22;40226;50.874;4.394;2022-07-23T01:16:45;17.40;99.90
23597;DHT22;40226;50.874;4.394;2022-07-23T01:19:12;17.30;99.90
23597;DHT22;40226;50.874;4.394;2022-07-23T01:21:47;17.30;99.90
23597;DHT22;40226;50.874;4.394;2022-07-23T01:24:13;17.40;99.90
23597;DHT22;40226;50.874;4.394;2022-07-23T01:26:42;17.30;99.90
23597;DHT22;40226;50.874;4.394;2022-07-23T01:29:07;17.20;99.90
23597;DHT22;40226;50.874;4.394;2022-07-23T01:31:33;17.50;99.90
23597;DHT22;40226;50.874;4.394;2022-07-23T01:33:59;17.50;99.90
23597;DHT22;40226;50.874;4.394;2022-07-23T01:36:24;17.20;99.90
23597;DHT22;40226;50.874;4.394;2022-07-23T01:38:50;17.00;99.90
23597;DHT22;40226;50.874;4.394;2022-07-23T01:41:16;17.10;99.90
23597;DHT22;40226;50.874;4.394;2022-07-23T01:43:42;17.10;99.90
23597;DHT22;40226;50.874;4.394;2022-07-23T01:46:07;17.40;99.90
23597;DHT22;40226;50.874;4.394;2022-07-23T01:48:33;17.50;99.90
23597;DHT22;40226;50.874;4.394;2022-07-23T01:50:58;17.50;99.90
23597;DHT22;40226;50.874;4.394;2022-07-23T01:53:24;17.60;99.90
23597;DHT22;40226;50.874;4.394;2022-07-23T01:55:50;17.40;99.90
23597;DHT22;40226;50.874;4.394;2022-07-23T01:58:15;17.00;99.90
23597;DHT22;40226;50.874;4.394;2022-07-23T02:00:41;17.10;99.90
23597;DHT22;40226;50.874;4.394;2022-07-23T02:03:06;17.00;99.90
23597;DHT22;40226;50.874;4.394;2022-07-23T02:05:32;17.10;99.90
23597;DHT22;40226;50.874;4.394;2022-07-23T02:07:59;17.40;99.90
23597;DHT22;40226;50.874;4.394;2022-07-23T02:10:25;17.40;99.90
23597;DHT22;40226;50.874;4.394;2022-07-23T02:12:50;17.30;99.90
23597;DHT22;40226;50.874;4.394;2022-07-23T02:15:16;17.40;99.90
23597;DHT22;40226;50.874;4.394;2022-07-23T02:17:42;17.60;99.90
23597;DHT22;40226;50.874;4.394;2022-07-23T02:20:09;17.60;99.90
23597;DHT22;40226;50.874;4.394;2022-07-23T02:22:35;17.40;99.90
23597;DHT22;40226;50.874;4.394;2022-07-23T02:25:02;17.40;99.90
23597;DHT22;40226;50.874;4.394;2022-07-23T02:27:28;17.30;99.90
23597;DHT22;40226;50.874;4.394;2022-07-23T02:29:54;17.20;99.90
23597;DHT22;40226;50.874;4.394;2022-07-23T02:32:19;16.90;99.90
23597;DHT22;40226;50.874;4.394;2022-07-23T02:34:47;16.80;99.90
23597;DHT22;40226;50.874;4.394;2022-07-23T02:37:12;16.80;99.90
23597;DHT22;40226;50.874;4.394;2022-07-23T02:39:38;16.70;99.90
23597;DHT22;40226;50.874;4.394;2022-07-23T02:42:04;16.60;99.90
23597;DHT22;40226;50.874;4.394;2022-07-23T02:44:30;16.70;99.90
23597;DHT22;40226;50.874;4.394;2022-07-23T02:46:55;16.50;99.90
23597;DHT22;40226;50.874;4.394;2022-07-23T02:49:21;16.80;99.90
23597;DHT22;40226;50.874;4.394;2022-07-23T02:51:46;16.90;99.90
23597;DHT22;40226;50.874;4.394;2022-07-23T02:54:12;17.10;99.90
23597;DHT22;40226;50.874;4.394;2022-07-23T02:56:38;17.20;99.90
23597;DHT22;40226;50.874;4.394;2022-07-23T02:59:03;17.20;99.90
23597;DHT22;40226;50.874;4.394;2022-07-23T03:01:29;17.20;99.90
23597;DHT22;40226;50.874;4.394;2022-07-23T03:03:54;17.40;99.90
23597;DHT22;40226;50.874;4.394;2022-07-23T03:06:20;17.40;99.90
23597;DHT22;40226;50.874;4.394;2022-07-23T03:08:46;17.60;99.90
23597;DHT22;40226;50.874;4.394;2022-07-23T03:11:11;17.60;99.90
23597;DHT22;40226;50.874;4.394;2022-07-23T03:13:39;17.50;99.90
23597;DHT22;40226;50.874;4.394;2022-07-23T03:16:05;17.20;99.90
23597;DHT22;40226;50.874;4.394;2022-07-23T03:18:32;17.20;99.90
23597;DHT22;40226;50.874;4.394;2022-07-23T03:20:59;17.30;99.90
23597;DHT22;40226;50.874;4.394;2022-07-23T03:23:24;17.20;99.90
23597;DHT22;40226;50.874;4.394;2022-07-23T03:25:50;17.20;99.90
23597;DHT22;40226;50.874;4.394;2022-07-23T03:28:17;17.40;99.90
23597;DHT22;40226;50.874;4.394;2022-07-23T03:30:43;17.40;99.90
23597;DHT22;40226;50.874;4.394;2022-07-23T03:33:18;17.30;99.90
23597;DHT22;40226;50.874;4.394;2022-07-23T03:35:45;17.20;99.90
23597;DHT22;40226;50.874;4.394;2022-07-23T03:38:11;17.30;99.90
23597;DHT22;40226;50.874;4.394;2022-07-23T03:40:37;17.10;99.90
23597;DHT22;40226;50.874;4.394;2022-07-23T03:43:02;17.00;99.90
23597;DHT22;40226;50.874;4.394;2022-07-23T03:45:28;17.20;99.90
23597;DHT22;40226;50.874;4.394;2022-07-23T03:47:53;17.20;99.90
23597;DHT22;40226;50.874;4.394;2022-07-23T03:50:19;17.30;99.90
23597;DHT22;40226;50.874;4.394;2022-07-23T03:52:45;17.20;99.90
23597;DHT22;40226;50.874;4.394;2022-07-23T03:55:11;17.20;99.90
23597;DHT22;40226;50.874;4.394;2022-07-23T03:57:36;17.10;99.90
23597;DHT22;40226;50.874;4.394;2022-07-23T04:00:05;16.70;99.90
23597;DHT22;40226;50.874;4.394;2022-07-23T04:02:31;16.70;99.90
23597;DHT22;40226;50.874;4.394;2022-07-23T04:04:57;16.70;99.90
23597;DHT22;40226;50.874;4.394;2022-07-23T04:07:22;17.00;99.90
23597;DHT22;40226;50.874;4.394;2022-07-23T04:09:48;17.20;99.90
23597;DHT22;40226;50.874;4.394;2022-07-23T04:12:14;17.20;99.90
23597;DHT22;40226;50.874;4.394;2022-07-23T04:14:40;17.00;99.90
23597;DHT22;40226;50.874;4.394;2022-07-23T04:17:05;17.00;99.90
23597;DHT22;40226;50.874;4.394;2022-07-23T04:19:31;17.00;99.90
23597;DHT22;40226;50.874;4.394;2022-07-23T04:21:57;16.80;99.90
23597;DHT22;40226;50.874;4.394;2022-07-23T04:24:23;16.70;99.90
23597;DHT22;40226;50.874;4.394;2022-07-23T04:26:48;16.70;99.90
23597;DHT22;40226;50.874;4.394;2022-07-23T04:29:14;16.80;99.90
23597;DHT22;40226;50.874;4.394;2022-07-23T04:31:40;16.90;99.90
23597;DHT22;40226;50.874;4.394;2022-07-23T04:34:05;17.10;99.90
23597;DHT22;40226;50.874;4.394;2022-07-23T04:36:31;17.00;99.90
23597;DHT22;40226;50.874;4.394;2022-07-23T04:38:56;17.00;99.90
23597;DHT22;40226;50.874;4.394;2022-07-23T04:41:22;17.10;99.90
23597;DHT22;40226;50.874;4.394;2022-07-23T04:43:48;17.30;99.90
23597;DHT22;40226;50.874;4.394;2022-07-23T04:46:13;17.40;99.90
23597;DHT22;40226;50.874;4.394;2022-07-23T04:48:39;17.20;99.90
23597;DHT22;40226;50.874;4.394;2022-07-23T04:51:05;17.20;99.90
23597;DHT22;40226;50.874;4.394;2022-07-23T04:53:31;17.10;99.90
23597;DHT22;40226;50.874;4.394;2022-07-23T04:55:57;17.10;99.90
23597;DHT22;40226;50.874;4.394;2022-07-23T04:58:23;17.20;99.90
23597;DHT22;40226;50.874;4.394;2022-07-23T05:00:49;17.20;99.90
23597;DHT22;40226;50.874;4.394;2022-07-23T05:03:14;17.10;99.90
23597;DHT22;40226;50.874;4.394;2022-07-23T05:05:40;17.20;99.90
23597;DHT22;40226;50.874;4.394;2022-07-23T05:08:06;17.30;99.90
23597;DHT22;40226;50.874;4.394;2022-07-23T05:10:31;17.30;99.90
23597;DHT22;40226;50.874;4.394;2022-07-23T05:12:57;17.70;99.90
23597;DHT22;40226;50.874;4.394;2022-07-23T05:15:23;17.60;99.90
23597;DHT22;40226;50.874;4.394;2022-07-23T05:17:48;17.50;99.90
23597;DHT22;40226;50.874;4.394;2022-07-23T05:20:14;17.70;99.90
23597;DHT22;40226;50.874;4.394;2022-07-23T05:22:40;17.50;99.90
23597;DHT22;40226;50.874;4.394;2022-07-23T05:25:06;17.50;99.90
23597;DHT22;40226;50.874;4.394;2022-07-23T05:27:32;17.60;99.90
23597;DHT22;40226;50.874;4.394;2022-07-23T05:29:57;17.60;99.90
23597;DHT22;40226;50.874;4.394;2022-07-23T05:32:23;17.90;99.90
23597;DHT22;40226;50.874;4.394;2022-07-23T05:34:49;17.80;99.90
23597;DHT22;40226;50.874;4.394;2022-07-23T05:37:15;18.00;99.90
23597;DHT22;40226;50.874;4.394;2022-07-23T05:39:40;18.10;99.90
23597;DHT22;40226;50.874;4.394;2022-07-23T05:42:06;17.80;99.90
23597;DHT22;40226;50.874;4.394;2022-07-23T05:44:32;17.80;99.90
23597;DHT22;40226;50.874;4.394;2022-07-23T05:46:57;17.90;99.90
23597;DHT22;40226;50.874;4.394;2022-07-23T05:49:23;18.10;99.90
23597;DHT22;40226;50.874;4.394;2022-07-23T05:51:48;18.00;99.90
23597;DHT22;40226;50.874;4.394;2022-07-23T05:54:14;18.10;99.90
23597;DHT22;40226;50.874;4.394;2022-07-23T05:56:39;18.30;99.90
23597;DHT22;40226;50.874;4.394;2022-07-23T05:59:05;18.20;99.90
23597;DHT22;40226;50.874;4.394;2022-07-23T06:01:31;18.30;99.90
23597;DHT22;40226;50.874;4.394;2022-07-23T06:03:57;18.40;99.90
23597;DHT22;40226;50.874;4.394;2022-07-23T06:06:22;18.40;99.90
23597;DHT22;40226;50.874;4.394;2022-07-23T06:08:48;18.10;99.90
23597;DHT22;40226;50.874;4.394;2022-07-23T06:11:13;18.10;99.90
23597;DHT22;40226;50.874;4.394;2022-07-23T06:13:39;18.20;99.90
23597;DHT22;40226;50.874;4.394;2022-07-23T06:16:04;18.40;99.90
23597;DHT22;40226;50.874;4.394;2022-07-23T06:18:30;18.60;99.90
23597;DHT22;40226;50.874;4.394;2022-07-23T06:20:55;18.40;99.90
23597;DHT22;40226;50.874;4.394;2022-07-23T06:23:21;18.20;99.90
23597;DHT22;40226;50.874;4.394;2022-07-23T06:25:47;18.20;99.90
23597;DHT22;40226;50.874;4.394;2022-07-23T06:28:12;18.30;99.90
23597;DHT22;40226;50.874;4.394;2022-07-23T06:30:38;18.20;99.90
23597;DHT22;40226;50.874;4.394;2022-07-23T06:33:04;18.40;99.90
23597;DHT22;40226;50.874;4.394;2022-07-23T06:35:29;18.40;99.90
23597;DHT22;40226;50.874;4.394;2022-07-23T06:37:55;18.60;99.90
23597;DHT22;40226;50.874;4.394;2022-07-23T06:40:22;18.60;99.90
23597;DHT22;40226;50.874;4.394;2022-07-23T06:42:47;18.70;99.90
23597;DHT22;40226;50.874;4.394;2022-07-23T06:45:13;18.90;99.90
23597;DHT22;40226;50.874;4.394;2022-07-23T06:47:38;19.20;99.90
23597;DHT22;40226;50.874;4.394;2022-07-23T06:50:06;19.30;99.90
23597;DHT22;40226;50.874;4.394;2022-07-23T06:52:31;19.50;99.90
23597;DHT22;40226;50.874;4.394;2022-07-23T06:54:57;19.60;99.90
23597;DHT22;40226;50.874;4.394;2022-07-23T06:57:23;19.70;99.90
23597;DHT22;40226;50.874;4.394;2022-07-23T06:59:51;19.90;99.90
23597;DHT22;40226;50.874;4.394;2022-07-23T07:02:16;19.90;99.90
23597;DHT22;40226;50.874;4.394;2022-07-23T07:04:42;19.60;99.90
23597;DHT22;40226;50.874;4.394;2022-07-23T07:07:08;19.80;99.90
23597;DHT22;40226;50.874;4.394;2022-07-23T07:09:34;19.60;99.90
23597;DHT22;40226;50.874;4.394;2022-07-23T07:11:59;19.60;99.90
23597;DHT22;40226;50.874;4.394;2022-07-23T07:14:25;19.70;99.90
23597;DHT22;40226;50.874;4.394;2022-07-23T07:16:50;19.70;99.90
23597;DHT22;40226;50.874;4.394;2022-07-23T07:19:16;20.00;99.90
23597;DHT22;40226;50.874;4.394;2022-07-23T07:21:42;20.00;99.90
23597;DHT22;40226;50.874;4.394;2022-07-23T07:24:07;20.00;99.90
23597;DHT22;40226;50.874;4.394;2022-07-23T07:26:33;20.00;99.90
23597;DHT22;40226;50.874;4.394;2022-07-23T07:28:58;20.10;99.90
23597;DHT22;40226;50.874;4.394;2022-07-23T07:31:24;20.20;99.90
23597;DHT22;40226;50.874;4.394;2022-07-23T07:33:50;20.40;99.90
23597;DHT22;40226;50.874;4.394;2022-07-23T07:36:15;20.30;99.90
23597;DHT22;40226;50.874;4.394;2022-07-23T07:38:41;20.40;99.90
23597;DHT22;40226;50.874;4.394;2022-07-23T07:41:07;20.50;99.90
23597;DHT22;40226;50.874;4.394;2022-07-23T07:43:33;20.60;99.90
23597;DHT22;40226;50.874;4.394;2022-07-23T07:45:58;20.80;99.90
23597;DHT22;40226;50.874;4.394;2022-07-23T07:48:24;20.90;99.90
23597;DHT22;40226;50.874;4.394;2022-07-23T07:50:50;20.90;99.90
23597;DHT22;40226;50.874;4.394;2022-07-23T07:53:16;21.00;99.90
23597;DHT22;40226;50.874;4.394;2022-07-23T07:55:41;21.20;99.90
23597;DHT22;40226;50.874;4.394;2022-07-23T07:58:07;21.30;99.90
23597;DHT22;40226;50.874;4.394;2022-07-23T08:00:32;21.50;99.90
23597;DHT22;40226;50.874;4.394;2022-07-23T08:02:59;21.40;99.90
23597;DHT22;40226;50.874;4.394;2022-07-23T08:05:26;21.20;99.90
23597;DHT22;40226;50.874;4.394;2022-07-23T08:07:52;21.20;99.90
23597;DHT22;40226;50.874;4.394;2022-07-23T08:10:18;21.30;99.90
23597;DHT22;40226;50.874;4.394;2022-07-23T08:12:46;21.30;99.90
23597;DHT22;40226;50.874;4.394;2022-07-23T08:15:13;21.40;99.90
23597;DHT22;40226;50.874;4.394;2022-07-23T08:17:39;21.60;99.90
23597;DHT22;40226;50.874;4.394;2022-07-23T08:20:06;21.90;99.90
23597;DHT22;40226;50.874;4.394;2022-07-23T08:25:15;21.90;99.90
23597;DHT22;40226;50.874;4.394;2022-07-23T08:27:41;21.80;99.90
23597;DHT22;40226;50.874;4.394;2022-07-23T08:30:08;21.60;99.90
23597;DHT22;40226;50.874;4.394;2022-07-23T08:32:45;21.60;99.90
23597;DHT22;40226;50.874;4.394;2022-07-23T08:35:12;21.90;99.90
23597;DHT22;40226;50.874;4.394;2022-07-23T08:37:37;22.00;99.90
23597;DHT22;40226;50.874;4.394;2022-07-23T08:40:03;22.10;99.90
23597;DHT22;40226;50.874;4.394;2022-07-23T08:42:29;21.80;99.90
23597;DHT22;40226;50.874;4.394;2022-07-23T08:44:55;22.10;99.90
23597;DHT22;40226;50.874;4.394;2022-07-23T08:47:21;22.20;99.90
23597;DHT22;40226;50.874;4.394;2022-07-23T08:49:47;22.30;99.90
23597;DHT22;40226;50.874;4.394;2022-07-23T08:52:13;22.20;99.90
23597;DHT22;40226;50.874;4.394;2022-07-23T08:54:39;22.40;99.90
23597;DHT22;40226;50.874;4.394;2022-07-23T08:57:05;22.50;99.90
23597;DHT22;40226;50.874;4.394;2022-07-23T08:59:31;22.70;99.90
23597;DHT22;40226;50.874;4.394;2022-07-23T09:01:57;22.70;99.90
23597;DHT22;40226;50.874;4.394;2022-07-23T09:04:24;22.60;99.90
23597;DHT22;40226;50.874;4.394;2022-07-23T09:06:50;22.80;99.90
23597;DHT22;40226;50.874;4.394;2022-07-23T09:09:17;22.80;99.90
23597;DHT22;40226;50.874;4.394;2022-07-23T09:11:47;23.00;99.90
23597;DHT22;40226;50.874;4.394;2022-07-23T09:14:13;23.10;99.90
23597;DHT22;40226;50.874;4.394;2022-07-23T09:16:39;23.10;99.90
23597;DHT22;40226;50.874;4.394;2022-07-23T09:19:06;23.20;99.90
23597;DHT22;40226;50.874;4.394;2022-07-23T09:21:36;23.20;99.90
23597;DHT22;40226;50.874;4.394;2022-07-23T09:24:04;22.70;99.90
23597;DHT22;40226;50.874;4.394;2022-07-23T09:34:28;23.10;99.90
23597;DHT22;40226;50.874;4.394;2022-07-23T09:37:14;23.20;99.90
23597;DHT22;40226;50.874;4.394;2022-07-23T09:39:41;23.50;99.90
23597;DHT22;40226;50.874;4.394;2022-07-23T09:42:19;23.60;99.90
23597;DHT22;40226;50.874;4.394;2022-07-23T09:44:50;23.70;99.90
23597;DHT22;40226;50.874;4.394;2022-07-23T09:47:16;23.70;99.90
23597;DHT22;40226;50.874;4.394;2022-07-23T09:50:02;23.60;99.90
23597;DHT22;40226;50.874;4.394;2022-07-23T09:52:33;23.90;99.90
23597;DHT22;40226;50.874;4.394;2022-07-23T09:55:01;24.20;99.90
23597;DHT22;40226;50.874;4.394;2022-07-23T09:57:27;24.20;99.90
23597;DHT22;40226;50.874;4.394;2022-07-23T09:59:57;24.20;99.90
23597;DHT22;40226;50.874;4.394;2022-07-23T10:02:23;24.20;99.90
23597;DHT22;40226;50.874;4.394;2022-07-23T10:04:52;24.30;99.90
23597;DHT22;40226;50.874;4.394;2022-07-23T10:07:21;24.10;99.90
23597;DHT22;40226;50.874;4.394;2022-07-23T10:09:48;24.20;99.90
23597;DHT22;40226;50.874;4.394;2022-07-23T10:12:16;24.20;99.90
23597;DHT22;40226;50.874;4.394;2022-07-23T10:14:49;24.30;99.90
23597;DHT22;40226;50.874;4.394;2022-07-23T10:17:15;24.10;99.90
23597;DHT22;40226;50.874;4.394;2022-07-23T10:19:41;24.30;99.90
23597;DHT22;40226;50.874;4.394;2022-07-23T10:22:15;24.30;99.90
23597;DHT22;40226;50.874;4.394;2022-07-23T10:30:33;24.70;99.90
23597;DHT22;40226;50.874;4.394;2022-07-23T10:33:32;24.90;99.90
23597;DHT22;40226;50.874;4.394;2022-07-23T10:36:28;24.90;99.90
23597;DHT22;40226;50.874;4.394;2022-07-23T10:41:38;24.60;99.90
23597;DHT22;40226;50.874;4.394;2022-07-23T10:44:21;24.50;99.90
23597;DHT22;40226;50.874;4.394;2022-07-23T10:49:33;24.90;99.90
23597;DHT22;40226;50.874;4.394;2022-07-23T10:54:40;25.20;99.90
23597;DHT22;40226;50.874;4.394;2022-07-23T10:57:07;25.70;99.90
23597;DHT22;40226;50.874;4.394;2022-07-23T11:02:41;26.30;99.90
23597;DHT22;40226;50.874;4.394;2022-07-23T11:05:11;26.40;99.90
23597;DHT22;40226;50.874;4.394;2022-07-23T11:16:17;26.30;99.90
23597;DHT22;40226;50.874;4.394;2022-07-23T11:32:06;31.00;96.20
23597;DHT22;40226;50.874;4.394;2022-07-23T11:37:06;31.30;93.90
23597;DHT22;40226;50.874;4.394;2022-07-23T11:39:32;32.20;92.30
23597;DHT22;40226;50.874;4.394;2022-07-23T11:42:00;32.80;90.50
23597;DHT22;40226;50.874;4.394;2022-07-23T11:44:26;33.30;89.50
23597;DHT22;40226;50.874;4.394;2022-07-23T11:46:56;34.00;85.40
23597;DHT22;40226;50.874;4.394;2022-07-23T11:49:23;34.50;82.00
23597;DHT22;40226;50.874;4.394;2022-07-23T11:52:09;34.20;79.80
23597;DHT22;40226;50.874;4.394;2022-07-23T11:54:37;34.90;76.30
23597;DHT22;40226;50.874;4.394;2022-07-23T11:57:11;34.80;74.50
23597;DHT22;40226;50.874;4.394;2022-07-23T11:59:38;35.70;71.60
23597;DHT22;40226;50.874;4.394;2022-07-23T12:02:05;35.30;68.80
23597;DHT22;40226;50.874;4.394;2022-07-23T12:04:51;36.30;67.80
23597;DHT22;40226;50.874;4.394;2022-07-23T12:07:37;36.20;66.60
23597;DHT22;40226;50.874;4.394;2022-07-23T12:12:48;35.80;65.60
23597;DHT22;40226;50.874;4.394;2022-07-23T12:15:20;35.70;64.40
23597;DHT22;40226;50.874;4.394;2022-07-23T12:17:48;35.10;65.70
23597;DHT22;40226;50.874;4.394;2022-07-23T12:20:17;35.60;64.40
23597;DHT22;40226;50.874;4.394;2022-07-23T12:22:46;36.00;62.90
23597;DHT22;40226;50.874;4.394;2022-07-23T12:25:15;36.40;62.30
23597;DHT22;40226;50.874;4.394;2022-07-23T12:27:42;36.20;61.50
23597;DHT22;40226;50.874;4.394;2022-07-23T12:30:24;35.90;61.50
23597;DHT22;40226;50.874;4.394;2022-07-23T12:32:53;37.20;60.30
23597;DHT22;40226;50.874;4.394;2022-07-23T12:35:20;35.60;60.30
23597;DHT22;40226;50.874;4.394;2022-07-23T12:37:49;33.30;65.10
23597;DHT22;40226;50.874;4.394;2022-07-23T12:40:20;33.50;66.40
23597;DHT22;40226;50.874;4.394;2022-07-23T12:42:48;34.10;63.70
23597;DHT22;40226;50.874;4.394;2022-07-23T12:45:16;32.90;66.30
23597;DHT22;40226;50.874;4.394;2022-07-23T12:47:53;33.70;65.60
23597;DHT22;40226;50.874;4.394;2022-07-23T12:50:41;34.30;64.90
23597;DHT22;40226;50.874;4.394;2022-07-23T12:53:09;32.90;66.10
23597;DHT22;40226;50.874;4.394;2022-07-23T12:55:36;33.50;66.20
23597;DHT22;40226;50.874;4.394;2022-07-23T12:58:08;34.60;63.80
23597;DHT22;40226;50.874;4.394;2022-07-23T13:00:53;36.10;62.00
23597;DHT22;40226;50.874;4.394;2022-07-23T13:05:59;36.40;58.90
23597;DHT22;40226;50.874;4.394;2022-07-23T13:08:26;36.70;58.60
23597;DHT22;40226;50.874;4.394;2022-07-23T13:10:52;37.10;58.10
23597;DHT22;40226;50.874;4.394;2022-07-23T13:13:23;37.10;57.50
23597;DHT22;40226;50.874;4.394;2022-07-23T13:15:50;35.80;58.30
23597;DHT22;40226;50.874;4.394;2022-07-23T13:18:15;34.30;61.00
23597;DHT22;40226;50.874;4.394;2022-07-23T13:20:43;34.30;61.70
23597;DHT22;40226;50.874;4.394;2022-07-23T13:23:08;35.60;59.30
23597;DHT22;40226;50.874;4.394;2022-07-23T13:25:34;37.00;57.40
23597;DHT22;40226;50.874;4.394;2022-07-23T13:28:00;37.50;56.70
23597;DHT22;40226;50.874;4.394;2022-07-23T13:30:26;36.80;58.30
23597;DHT22;40226;50.874;4.394;2022-07-23T13:32:51;37.80;55.90
23597;DHT22;40226;50.874;4.394;2022-07-23T13:35:17;37.60;55.90
23597;DHT22;40226;50.874;4.394;2022-07-23T13:37:43;37.00;56.10
23597;DHT22;40226;50.874;4.394;2022-07-23T13:40:08;36.60;57.60
23597;DHT22;40226;50.874;4.394;2022-07-23T13:42:35;37.00;56.70
23597;DHT22;40226;50.874;4.394;2022-07-23T13:45:04;37.00;55.60
23597;DHT22;40226;50.874;4.394;2022-07-23T13:47:30;35.30;56.90
23597;DHT22;40226;50.874;4.394;2022-07-23T13:49:55;35.50;57.80
23597;DHT22;40226;50.874;4.394;2022-07-23T13:52:21;35.40;57.10
23597;DHT22;40226;50.874;4.394;2022-07-23T13:54:46;35.10;57.80
23597;DHT22;40226;50.874;4.394;2022-07-23T13:57:12;33.80;58.80
23597;DHT22;40226;50.874;4.394;2022-07-23T13:59:38;32.90;61.70
23597;DHT22;40226;50.874;4.394;2022-07-23T14:02:04;32.70;62.60
23597;DHT22;40226;50.874;4.394;2022-07-23T14:04:30;32.70;63.80
23597;DHT22;40226;50.874;4.394;2022-07-23T14:06:56;32.60;63.20
23597;DHT22;40226;50.874;4.394;2022-07-23T14:09:22;33.10;63.20
23597;DHT22;40226;50.874;4.394;2022-07-23T14:11:48;34.90;61.10
23597;DHT22;40226;50.874;4.394;2022-07-23T14:14:15;36.30;59.60
23597;DHT22;40226;50.874;4.394;2022-07-23T14:16:40;37.40;57.10
23597;DHT22;40226;50.874;4.394;2022-07-23T14:19:06;38.20;56.00
23597;DHT22;40226;50.874;4.394;2022-07-23T14:21:32;39.30;54.30
23597;DHT22;40226;50.874;4.394;2022-07-23T14:23:57;39.10;53.90
23597;DHT22;40226;50.874;4.394;2022-07-23T14:26:23;38.40;53.80
23597;DHT22;40226;50.874;4.394;2022-07-23T14:28:49;38.80;53.50
23597;DHT22;40226;50.874;4.394;2022-07-23T14:31:15;39.50;52.70
23597;DHT22;40226;50.874;4.394;2022-07-23T14:33:40;39.00;52.20
23597;DHT22;40226;50.874;4.394;2022-07-23T14:36:06;36.00;55.50
23597;DHT22;40226;50.874;4.394;2022-07-23T14:38:31;35.60;56.30
23597;DHT22;40226;50.874;4.394;2022-07-23T14:40:57;35.30;57.90
23597;DHT22;40226;50.874;4.394;2022-07-23T14:43:23;36.40;56.40
23597;DHT22;40226;50.874;4.394;2022-07-23T14:45:49;37.80;54.40
23597;DHT22;40226;50.874;4.394;2022-07-23T14:48:14;35.90;55.50
23597;DHT22;40226;50.874;4.394;2022-07-23T14:50:40;34.50;58.50
23597;DHT22;40226;50.874;4.394;2022-07-23T14:53:06;35.70;57.40
23597;DHT22;40226;50.874;4.394;2022-07-23T14:55:32;35.60;56.30
23597;DHT22;40226;50.874;4.394;2022-07-23T14:57:58;34.70;57.80
23597;DHT22;40226;50.874;4.394;2022-07-23T15:00:24;34.90;57.80
23597;DHT22;40226;50.874;4.394;2022-07-23T15:02:53;35.10;57.80
23597;DHT22;40226;50.874;4.394;2022-07-23T15:05:19;34.90;57.40
23597;DHT22;40226;50.874;4.394;2022-07-23T15:07:45;34.10;58.50
23597;DHT22;40226;50.874;4.394;2022-07-23T15:10:10;33.30;60.00
23597;DHT22;40226;50.874;4.394;2022-07-23T15:12:36;33.90;60.40
23597;DHT22;40226;50.874;4.394;2022-07-23T15:15:02;35.50;58.10
23597;DHT22;40226;50.874;4.394;2022-07-23T15:17:29;37.20;55.40
23597;DHT22;40226;50.874;4.394;2022-07-23T15:19:55;39.00;53.30
23597;DHT22;40226;50.874;4.394;2022-07-23T15:22:21;39.40;51.00
23597;DHT22;40226;50.874;4.394;2022-07-23T15:24:46;39.70;51.30
23597;DHT22;40226;50.874;4.394;2022-07-23T15:27:12;39.90;50.80
23597;DHT22;40226;50.874;4.394;2022-07-23T15:29:37;39.40;49.60
23597;DHT22;40226;50.874;4.394;2022-07-23T15:32:03;37.60;51.50
23597;DHT22;40226;50.874;4.394;2022-07-23T15:34:29;37.50;51.80
23597;DHT22;40226;50.874;4.394;2022-07-23T15:36:55;38.90;51.10
23597;DHT22;40226;50.874;4.394;2022-07-23T15:39:21;39.90;49.40
23597;DHT22;40226;50.874;4.394;2022-07-23T15:41:46;40.40;48.90
23597;DHT22;40226;50.874;4.394;2022-07-23T15:44:12;40.30;48.50
23597;DHT22;40226;50.874;4.394;2022-07-23T15:46:38;39.60;47.80
23597;DHT22;40226;50.874;4.394;2022-07-23T15:49:03;37.60;50.80
23597;DHT22;40226;50.874;4.394;2022-07-23T15:51:29;37.20;51.40
23597;DHT22;40226;50.874;4.394;2022-07-23T15:53:57;35.70;53.70
23597;DHT22;40226;50.874;4.394;2022-07-23T15:56:22;35.60;54.60
23597;DHT22;40226;50.874;4.394;2022-07-23T15:58:48;36.10;53.80
23597;DHT22;40226;50.874;4.394;2022-07-23T16:01:13;37.40;52.90
23597;DHT22;40226;50.874;4.394;2022-07-23T16:03:39;36.90;52.60
23597;DHT22;40226;50.874;4.394;2022-07-23T16:06:05;38.00;51.60
23597;DHT22;40226;50.874;4.394;2022-07-23T16:08:31;38.50;50.60
23597;DHT22;40226;50.874;4.394;2022-07-23T16:10:57;37.90;51.30
23597;DHT22;40226;50.874;4.394;2022-07-23T16:13:24;38.90;50.60
23597;DHT22;40226;50.874;4.394;2022-07-23T16:15:50;40.20;49.00
23597;DHT22;40226;50.874;4.394;2022-07-23T16:18:16;40.60;48.30
23597;DHT22;40226;50.874;4.394;2022-07-23T16:20:42;40.60;48.50
23597;DHT22;40226;50.874;4.394;2022-07-23T16:23:08;41.80;47.00
23597;DHT22;40226;50.874;4.394;2022-07-23T16:25:34;42.20;46.00